Main page
METAR-TAF:

METAR-TAF

Airports :

Nîmes–Alès–Camargue–Cévennes Airport

Nîmes, France

latitude: 43-45N, longitude: 004-25E, elevation: 94 m

Current weather observation

The report was made 18 minutes ago, at 21:00 UTC
Wind 5 kt from the West/Northwest, varying between West and North/Northwest
Temperature 14°C
Humidity 47%
Pressure 1015 hPa
Visibility 10 km or more
no clouds below 1500 m and no cumulonimbus

METAR: LFTW 052100Z AUTO 30005KT 260V330 CAVOK 14/03 Q1015

Time: 23:18 (21:18 UTC)

Forecast

The report was made 7 hours and 18 minutes ago, at 14:00 UTC
Forecast valid from 05 at 15 UTC to 06 at 15 UTC
Wind 13 kt from the Northwest
Visibility 10 km or more
no clouds below 1500 m and no cumulonimbus
Becoming
from 05 at 21 UTC to 05 at 23 UTC
Wind 3 kt from the West
Becoming
from 06 at 09 UTC to 06 at 11 UTC
Wind 10 kt from the South/Southwest

TAF: LFTW 051400Z 0515/0615 31013KT CAVOK BECMG 0521/0523 28003KT BECMG 0609/0611 21010KT

Weather observations and forecasts of more than 4000 airports (METAR and TAF reports).

The available stations are represented by yellow and red dots on the map.

Hover mouse over dot to see the name of the station.

Then click to see weather observations and forecasts.

To change the map : click on the green buttons with a black cross to zoom in, on the green button with a dash to zoom out, or on the green arrows for adjacent maps.


METAR-TAF: